createdAt,value
2019-03-20T00:00:09.648Z,4.97
2019-03-20T00:02:37.720Z,4.90
2019-03-20T00:05:07.189Z,5.27
2019-03-20T00:07:35.641Z,4.90
2019-03-20T00:10:04.442Z,5.27
2019-03-20T00:12:32.838Z,5.10
2019-03-20T00:15:01.783Z,5.73
2019-03-20T00:17:30.901Z,5.07
2019-03-20T00:19:59.969Z,5.33
2019-03-20T00:22:28.573Z,4.93
2019-03-20T00:24:57.001Z,5.33
2019-03-20T00:27:25.443Z,6.00
2019-03-20T00:29:54.167Z,4.90
2019-03-20T00:32:22.775Z,5.20
2019-03-20T00:35:00.486Z,5.10
2019-03-20T00:37:22.158Z,4.77
2019-03-20T00:39:51.736Z,4.90
2019-03-20T00:42:20.379Z,5.17
2019-03-20T00:44:48.909Z,4.80
2019-03-20T00:47:17.935Z,4.70
2019-03-20T00:49:46.090Z,4.23
2019-03-20T00:52:14.391Z,4.53
2019-03-20T00:54:43.321Z,5.00
2019-03-20T00:57:11.659Z,4.40
2019-03-20T00:59:39.890Z,4.73
2019-03-20T01:02:09.375Z,5.13
2019-03-20T01:04:37.755Z,5.30
2019-03-20T01:07:07.038Z,5.10
2019-03-20T01:09:36.873Z,5.30
2019-03-20T01:12:05.054Z,5.23
2019-03-20T01:14:33.286Z,4.80
2019-03-20T01:17:01.615Z,4.90
2019-03-20T01:19:29.844Z,5.37
2019-03-20T01:21:58.575Z,5.83
2019-03-20T01:24:26.718Z,5.13
2019-03-20T01:26:55.352Z,4.83
2019-03-20T01:29:23.831Z,4.80
2019-03-20T01:31:52.783Z,4.87
2019-03-20T01:34:21.491Z,5.17
2019-03-20T01:36:49.883Z,5.43
2019-03-20T01:39:17.936Z,5.77
2019-03-20T01:41:46.540Z,5.40
2019-03-20T01:44:15.256Z,5.10
2019-03-20T01:46:45.850Z,5.70
2019-03-20T01:49:15.371Z,5.50
2019-03-20T01:51:44.060Z,5.60
2019-03-20T01:54:12.517Z,5.73
2019-03-20T01:56:40.660Z,5.80
2019-03-20T01:59:09.246Z,5.10
2019-03-20T02:01:37.449Z,5.57
2019-03-20T02:04:05.830Z,5.60
2019-03-20T02:06:35.016Z,5.27
2019-03-20T02:09:04.965Z,5.23
2019-03-20T02:11:33.833Z,5.40
2019-03-20T02:14:02.112Z,5.50
2019-03-20T02:16:32.435Z,5.13
2019-03-20T02:19:00.578Z,5.17
2019-03-20T02:21:29.339Z,4.93
2019-03-20T02:23:57.695Z,5.40
2019-03-20T02:26:26.010Z,6.03
2019-03-20T02:28:54.794Z,7.10
2019-03-20T02:31:25.542Z,6.40
2019-03-20T02:33:54.102Z,6.33
2019-03-20T02:36:22.297Z,6.27
2019-03-20T02:38:50.580Z,5.67
2019-03-20T02:41:18.631Z,6.10
2019-03-20T02:43:48.613Z,5.77
2019-03-20T02:46:17.257Z,6.17
2019-03-20T02:48:46.026Z,5.60
2019-03-20T02:51:14.940Z,5.37
2019-03-20T02:53:44.323Z,5.20
2019-03-20T02:56:12.500Z,5.43
2019-03-20T02:58:42.367Z,6.27
2019-03-20T03:01:10.458Z,5.13
2019-03-20T03:03:38.775Z,5.67
2019-03-20T03:06:07.644Z,5.13
2019-03-20T03:08:35.825Z,5.37
2019-03-20T03:11:04.285Z,5.73
2019-03-20T03:13:32.803Z,6.00
2019-03-20T03:16:01.142Z,6.10
2019-03-20T03:18:31.129Z,5.40
2019-03-20T03:20:59.831Z,5.60
2019-03-20T03:23:28.138Z,5.27
2019-03-20T03:25:56.840Z,5.63
2019-03-20T03:28:25.111Z,5.83
2019-03-20T03:30:53.172Z,5.43
2019-03-20T03:33:21.388Z,5.77
2019-03-20T03:35:51.228Z,5.77
2019-03-20T03:38:20.648Z,5.63
2019-03-20T03:40:49.520Z,5.30
2019-03-20T03:43:17.772Z,6.20
2019-03-20T03:45:46.803Z,6.20
2019-03-20T03:48:14.759Z,6.20
2019-03-20T03:50:44.141Z,6.10
2019-03-20T03:53:12.423Z,6.03
2019-03-20T03:55:41.343Z,5.53
2019-03-20T03:58:10.924Z,5.87
2019-03-20T04:00:39.836Z,5.90
2019-03-20T04:03:08.520Z,5.20
2019-03-20T04:05:36.900Z,5.80
2019-03-20T04:08:05.992Z,5.73
2019-03-20T04:10:35.509Z,5.93
2019-03-20T04:13:03.955Z,5.30
2019-03-20T04:15:36.257Z,5.57
2019-03-20T04:18:02.814Z,6.13
2019-03-20T04:20:31.765Z,5.93
2019-03-20T04:22:59.735Z,5.70
2019-03-20T04:25:27.884Z,5.70
2019-03-20T04:27:58.305Z,6.20
2019-03-20T04:30:26.594Z,5.43
2019-03-20T04:32:55.286Z,5.63
2019-03-20T04:35:23.355Z,6.63
2019-03-20T04:37:51.593Z,5.80
2019-03-20T04:40:19.995Z,6.40
2019-03-20T04:42:48.695Z,6.67
2019-03-20T04:45:17.091Z,9.00
2019-03-20T04:47:45.366Z,7.57
2019-03-20T04:50:13.559Z,7.47
2019-03-20T04:52:41.548Z,7.33
2019-03-20T04:55:10.233Z,6.80
2019-03-20T04:57:38.598Z,6.63
2019-03-20T05:00:10.462Z,6.80
2019-03-20T05:02:38.925Z,6.30
2019-03-20T05:05:07.613Z,6.07
2019-03-20T05:07:36.284Z,5.93
2019-03-20T05:10:06.430Z,6.13
2019-03-20T05:12:34.996Z,6.03
2019-03-20T05:15:04.196Z,5.87
2019-03-20T05:17:32.182Z,6.27
2019-03-20T05:20:00.490Z,6.20
2019-03-20T05:22:29.268Z,6.83
2019-03-20T05:24:57.913Z,6.80
2019-03-20T05:27:26.409Z,6.73
2019-03-20T05:29:54.577Z,6.67
2019-03-20T05:32:24.033Z,7.10
2019-03-20T05:34:52.210Z,6.53
2019-03-20T05:37:20.482Z,6.47
2019-03-20T05:39:49.647Z,7.13
2019-03-20T05:42:19.351Z,6.93
2019-03-20T05:44:48.355Z,7.20
2019-03-20T05:47:16.392Z,7.67
2019-03-20T05:49:45.583Z,7.90
2019-03-20T05:52:13.634Z,7.70
2019-03-20T05:54:42.936Z,7.47
2019-03-20T05:57:12.632Z,7.27
2019-03-20T05:59:41.480Z,7.73
2019-03-20T06:02:09.988Z,7.43
2019-03-20T06:04:38.476Z,8.27
2019-03-20T06:07:06.671Z,13.03
2019-03-20T06:09:34.793Z,13.77
2019-03-20T06:12:03.248Z,9.20
2019-03-20T06:14:32.085Z,6.30
2019-03-20T06:17:00.583Z,5.70
2019-03-20T06:19:28.841Z,5.90
2019-03-20T06:21:56.862Z,4.80
2019-03-20T06:24:25.641Z,4.77
2019-03-20T06:26:54.484Z,4.83
2019-03-20T06:29:24.439Z,4.90
2019-03-20T06:31:53.736Z,5.27
2019-03-20T06:34:22.927Z,5.17
2019-03-20T06:36:51.209Z,5.20
2019-03-20T06:39:19.542Z,5.40
2019-03-20T06:41:47.811Z,5.47
2019-03-20T06:44:15.881Z,5.20
2019-03-20T06:46:44.261Z,5.00
2019-03-20T06:49:12.538Z,5.30
2019-03-20T06:51:40.590Z,6.00
2019-03-20T06:54:08.704Z,5.90
2019-03-20T06:56:37.111Z,5.70
2019-03-20T07:00:09.440Z,6.13
2019-03-20T07:02:42.183Z,6.33
2019-03-20T07:06:24.409Z,6.77
2019-03-20T07:09:01.132Z,7.63
2019-03-20T07:11:27.656Z,6.70
2019-03-20T07:13:56.370Z,8.07
2019-03-20T07:16:24.972Z,7.03
2019-03-20T07:18:53.158Z,7.20
2019-03-20T07:21:21.593Z,7.97
2019-03-20T07:23:51.275Z,7.80
2019-03-20T07:26:19.568Z,7.87
2019-03-20T07:28:48.395Z,7.67
2019-03-20T07:31:17.034Z,7.97
2019-03-20T07:33:45.827Z,7.87
2019-03-20T07:36:14.584Z,6.67
2019-03-20T07:38:43.034Z,6.93
2019-03-20T07:41:12.000Z,6.83
2019-03-20T07:43:42.076Z,9.83
2019-03-20T07:46:12.157Z,7.23
2019-03-20T07:48:42.350Z,7.53
2019-03-20T07:51:12.101Z,7.13
2019-03-20T07:53:41.624Z,7.20
2019-03-20T07:56:11.639Z,6.93
2019-03-20T07:58:43.094Z,6.50
2019-03-20T08:01:11.848Z,7.10
2019-03-20T08:03:42.079Z,6.30
2019-03-20T08:06:14.157Z,6.27
2019-03-20T08:08:43.341Z,6.63
2019-03-20T08:11:11.840Z,6.40
2019-03-20T08:13:40.005Z,6.77
2019-03-20T08:16:09.896Z,6.77
2019-03-20T08:18:38.217Z,6.33
2019-03-20T08:21:07.043Z,6.70
2019-03-20T08:23:36.077Z,6.77
2019-03-20T08:26:04.571Z,6.90
2019-03-20T08:28:33.949Z,7.30
2019-03-20T08:31:02.396Z,6.77
2019-03-20T08:33:35.096Z,6.73
2019-03-20T08:36:04.090Z,6.40
2019-03-20T08:38:32.353Z,6.40
2019-03-20T08:41:00.670Z,6.40
2019-03-20T08:43:30.627Z,5.63
2019-03-20T08:45:59.603Z,5.33
2019-03-20T08:48:29.118Z,5.47
2019-03-20T08:50:58.087Z,5.10
2019-03-20T08:53:27.191Z,5.20
2019-03-20T08:55:57.414Z,5.90
2019-03-20T08:58:27.706Z,5.90
2019-03-20T09:00:58.331Z,5.60
2019-03-20T09:03:28.065Z,5.47
2019-03-20T09:05:56.955Z,5.70
2019-03-20T09:08:29.686Z,5.67
2019-03-20T09:10:56.215Z,5.20
2019-03-20T09:13:25.519Z,4.57
2019-03-20T09:15:54.285Z,4.77
2019-03-20T09:18:22.889Z,5.00
2019-03-20T09:20:51.000Z,5.23
2019-03-20T09:23:19.249Z,3.90
2019-03-20T09:25:48.498Z,3.60
2019-03-20T09:28:16.952Z,4.77
2019-03-20T09:30:46.178Z,3.60
2019-03-20T09:33:16.710Z,3.60
2019-03-20T09:35:46.316Z,3.70
2019-03-20T09:38:15.821Z,3.90
2019-03-20T09:40:44.302Z,3.80
2019-03-20T09:43:12.376Z,3.60
2019-03-20T09:45:41.447Z,4.17
2019-03-20T09:48:09.852Z,4.03
2019-03-20T09:50:37.916Z,3.37
2019-03-20T09:53:08.027Z,3.73
2019-03-20T09:55:37.648Z,3.80
2019-03-20T09:58:11.634Z,3.07
2019-03-20T10:00:36.731Z,3.97
2019-03-20T10:03:05.032Z,3.17
2019-03-20T10:05:33.827Z,3.40
2019-03-20T10:08:02.503Z,3.30
2019-03-20T10:10:32.844Z,3.17
2019-03-20T10:13:00.944Z,3.70
2019-03-20T10:15:30.161Z,3.97
2019-03-20T10:17:58.612Z,3.27
2019-03-20T10:20:27.352Z,3.30
2019-03-20T10:22:55.945Z,3.30
2019-03-20T10:25:25.482Z,3.17
2019-03-20T10:27:54.727Z,5.23
2019-03-20T10:30:23.008Z,3.30
2019-03-20T10:32:51.251Z,2.60
2019-03-20T10:35:19.869Z,2.77
2019-03-20T10:37:50.314Z,3.53
2019-03-20T10:40:19.960Z,3.23
2019-03-20T10:42:50.308Z,3.10
2019-03-20T10:45:19.673Z,2.70
2019-03-20T10:47:49.543Z,2.87
2019-03-20T10:50:21.501Z,2.83
2019-03-20T10:52:51.626Z,2.80
2019-03-20T10:55:20.191Z,2.43
2019-03-20T10:57:49.491Z,2.63
2019-03-20T11:00:20.068Z,2.30
2019-03-20T11:02:48.472Z,2.80
2019-03-20T11:05:17.716Z,2.70
2019-03-20T11:07:46.124Z,2.40
2019-03-20T11:10:17.316Z,2.70
2019-03-20T11:12:45.848Z,2.73
2019-03-20T11:15:15.220Z,2.87
2019-03-20T11:17:43.283Z,2.60
2019-03-20T11:20:13.632Z,2.90
2019-03-20T11:22:42.442Z,2.83
2019-03-20T11:25:15.399Z,2.90
2019-03-20T11:27:43.573Z,3.00
2019-03-20T11:30:19.308Z,3.23
2019-03-20T11:32:47.845Z,2.80
2019-03-20T11:35:16.942Z,2.90
2019-03-20T11:37:45.096Z,2.50
2019-03-20T11:40:17.658Z,2.40
2019-03-20T11:42:46.131Z,2.80
2019-03-20T11:45:14.351Z,2.50
2019-03-20T11:47:42.737Z,2.70
2019-03-20T11:50:15.275Z,2.67
2019-03-20T11:52:44.129Z,2.90
2019-03-20T11:55:12.654Z,2.70
2019-03-20T11:57:41.770Z,2.90
2019-03-20T12:00:13.094Z,2.63
2019-03-20T12:02:41.904Z,2.87
2019-03-20T12:05:10.420Z,2.97
2019-03-20T12:07:39.622Z,2.60
2019-03-20T12:10:13.216Z,2.70
2019-03-20T12:12:41.796Z,2.60
2019-03-20T12:15:10.773Z,2.27
2019-03-20T12:17:41.075Z,2.90
2019-03-20T12:20:13.496Z,2.70
2019-03-20T12:22:41.489Z,2.80
2019-03-20T12:25:13.310Z,2.40
2019-03-20T12:27:42.282Z,1.90
2019-03-20T12:30:13.351Z,2.00
2019-03-20T12:32:41.480Z,2.07
2019-03-20T12:35:12.094Z,2.23
2019-03-20T12:37:41.047Z,1.90
2019-03-20T12:40:22.771Z,2.03
2019-03-20T12:42:51.003Z,2.10
2019-03-20T12:45:21.573Z,2.27
2019-03-20T12:47:49.772Z,2.20
2019-03-20T12:50:17.961Z,2.20
2019-03-20T12:52:46.164Z,2.10
2019-03-20T12:55:17.207Z,2.17
2019-03-20T12:57:46.400Z,2.00
2019-03-20T13:00:17.602Z,1.90
2019-03-20T13:02:46.863Z,2.10
2019-03-20T13:05:15.083Z,2.20
2019-03-20T13:07:43.425Z,2.20
2019-03-20T13:10:14.094Z,2.00
2019-03-20T13:12:42.543Z,1.93
2019-03-20T13:15:14.729Z,2.20
2019-03-20T13:17:42.761Z,2.03
2019-03-20T13:20:10.949Z,1.97
2019-03-20T13:22:39.657Z,1.87
2019-03-20T13:25:10.184Z,2.20
2019-03-20T13:27:38.755Z,2.10
2019-03-20T13:30:20.162Z,2.33
2019-03-20T13:32:44.658Z,1.90
2019-03-20T13:35:13.193Z,1.70
2019-03-20T13:37:41.323Z,1.60
2019-03-20T13:40:14.428Z,1.80
2019-03-20T13:42:40.991Z,1.30
2019-03-20T13:45:13.563Z,1.70
2019-03-20T13:47:41.700Z,1.80
2019-03-20T13:50:11.973Z,1.60
2019-03-20T13:52:40.784Z,1.80
2019-03-20T13:55:10.105Z,1.80
2019-03-20T13:57:38.528Z,1.80
2019-03-20T14:00:19.624Z,1.87
2019-03-20T14:02:48.217Z,2.00
2019-03-20T14:05:16.336Z,2.20
2019-03-20T14:07:45.586Z,2.10
2019-03-20T14:10:24.513Z,2.33
2019-03-20T14:12:47.497Z,2.17
2019-03-20T14:15:16.776Z,1.87
2019-03-20T14:17:45.362Z,1.97
2019-03-20T14:20:17.939Z,2.20
2019-03-20T14:22:46.920Z,2.00
2019-03-20T14:25:15.920Z,2.07
2019-03-20T14:27:44.178Z,1.70
2019-03-20T14:30:21.211Z,2.10
2019-03-20T14:32:49.714Z,1.90
2019-03-20T14:35:18.198Z,2.10
2019-03-20T14:37:51.795Z,2.03
2019-03-20T14:40:24.072Z,1.87
2019-03-20T14:42:52.668Z,2.43
2019-03-20T14:45:21.240Z,2.17
2019-03-20T14:47:49.612Z,2.13
2019-03-20T14:50:25.878Z,2.00
2019-03-20T14:52:54.406Z,2.23
2019-03-20T14:55:23.048Z,2.13
2019-03-20T14:57:53.981Z,2.00
2019-03-20T15:00:24.653Z,2.40
2019-03-20T15:02:54.316Z,2.03
2019-03-20T15:05:22.896Z,2.40
2019-03-20T15:07:51.779Z,2.17
2019-03-20T15:10:20.765Z,2.47
2019-03-20T15:12:49.514Z,2.33
2019-03-20T15:15:33.869Z,2.10
2019-03-20T15:18:02.027Z,2.20
2019-03-20T15:20:30.671Z,2.53
2019-03-20T15:23:00.265Z,2.70
2019-03-20T15:25:28.355Z,2.43
2019-03-20T15:27:57.034Z,2.70
2019-03-20T15:30:26.630Z,2.50
2019-03-20T15:32:55.321Z,1.90
2019-03-20T15:35:24.218Z,2.40
2019-03-20T15:37:52.511Z,2.27
2019-03-20T15:40:21.080Z,1.60
2019-03-20T15:42:49.635Z,2.00
2019-03-20T15:45:17.804Z,1.80
2019-03-20T15:47:45.972Z,2.03
2019-03-20T15:50:15.665Z,2.00
2019-03-20T15:52:44.931Z,1.90
2019-03-20T15:55:21.434Z,1.87
2019-03-20T15:57:51.152Z,2.13
2019-03-20T16:00:19.861Z,1.83
2019-03-20T16:02:50.549Z,2.03
2019-03-20T16:05:19.144Z,2.10
2019-03-20T16:07:49.749Z,2.07
2019-03-20T16:10:20.117Z,2.07
2019-03-20T16:12:48.733Z,2.30
2019-03-20T16:15:18.944Z,1.93
2019-03-20T16:17:47.707Z,2.07
2019-03-20T16:20:16.042Z,1.90
2019-03-20T16:22:44.439Z,1.87
2019-03-20T16:25:13.965Z,2.33
2019-03-20T16:27:45.320Z,2.20
2019-03-20T16:30:18.682Z,2.00
2019-03-20T16:32:47.470Z,2.17
2019-03-20T16:35:22.489Z,1.97
2019-03-20T16:37:55.016Z,2.10
2019-03-20T16:40:24.337Z,2.03
2019-03-20T16:42:53.580Z,2.13
2019-03-20T16:45:28.608Z,2.00
2019-03-20T16:47:57.597Z,2.40
2019-03-20T16:50:25.867Z,2.00
2019-03-20T16:52:54.115Z,1.90
2019-03-20T16:55:23.904Z,2.03
2019-03-20T16:57:53.760Z,2.13
2019-03-20T17:00:32.667Z,1.97
2019-03-20T17:03:01.535Z,1.77
2019-03-20T17:05:30.241Z,2.10
2019-03-20T17:07:58.460Z,2.03
2019-03-20T17:10:33.355Z,2.20
2019-03-20T17:13:01.483Z,2.30
2019-03-20T17:15:30.391Z,2.53
2019-03-20T17:17:59.035Z,2.13
2019-03-20T17:20:27.804Z,1.80
2019-03-20T17:22:56.930Z,2.20
2019-03-20T17:25:25.076Z,2.20
2019-03-20T17:27:53.531Z,2.00
2019-03-20T17:30:27.773Z,1.97
2019-03-20T17:32:55.940Z,1.90
2019-03-20T17:35:24.147Z,2.30
2019-03-20T17:37:52.427Z,2.70
2019-03-20T17:40:20.971Z,2.20
2019-03-20T17:42:49.316Z,3.13
2019-03-20T17:45:19.196Z,3.20
2019-03-20T17:47:48.230Z,2.95
2019-03-20T17:50:23.458Z,2.70
2019-03-20T17:52:51.829Z,2.90
2019-03-20T17:55:23.605Z,2.57
2019-03-20T17:57:52.141Z,2.93
2019-03-20T18:00:37.027Z,3.07
2019-03-20T18:03:06.152Z,2.60
2019-03-20T18:05:34.787Z,2.60
2019-03-20T18:08:03.810Z,6.33
2019-03-20T18:10:34.414Z,6.50
2019-03-20T18:13:03.310Z,7.20
2019-03-20T18:15:32.658Z,3.50
2019-03-20T18:18:02.892Z,3.03
2019-03-20T18:20:31.612Z,3.20
2019-03-20T18:23:04.982Z,3.03
2019-03-20T18:25:34.820Z,3.07
2019-03-20T18:28:03.405Z,3.10
2019-03-20T18:30:32.198Z,3.63
2019-03-20T18:33:01.400Z,3.40
2019-03-20T18:35:31.649Z,3.63
2019-03-20T18:38:00.699Z,3.80
2019-03-20T18:40:29.796Z,3.40
2019-03-20T18:42:58.862Z,4.00
2019-03-20T18:45:27.375Z,4.53
2019-03-20T18:47:55.770Z,5.27
2019-03-20T18:50:24.823Z,6.83
2019-03-20T18:52:53.006Z,6.87
2019-03-20T18:55:21.188Z,5.00
2019-03-20T18:57:49.867Z,4.20
2019-03-20T19:00:23.483Z,3.90
2019-03-20T19:02:53.269Z,4.43
2019-03-20T19:05:40.811Z,4.17
2019-03-20T19:08:09.270Z,4.57
2019-03-20T19:10:37.856Z,4.33
2019-03-20T19:13:06.162Z,4.57
2019-03-20T19:15:35.966Z,5.10
2019-03-20T19:18:04.407Z,5.70
2019-03-20T19:20:32.791Z,5.43
2019-03-20T19:23:01.279Z,5.47
2019-03-20T19:25:29.888Z,5.73
2019-03-20T19:27:58.125Z,4.40
2019-03-20T19:30:26.717Z,4.03
2019-03-20T19:32:55.145Z,3.90
2019-03-20T19:35:23.562Z,4.03
2019-03-20T19:37:51.922Z,4.27
2019-03-20T19:40:20.432Z,4.13
2019-03-20T19:42:49.070Z,3.93
2019-03-20T19:45:18.269Z,4.27
2019-03-20T19:47:47.237Z,4.30
2019-03-20T19:50:16.807Z,4.03
2019-03-20T19:52:45.711Z,4.13
2019-03-20T19:55:14.383Z,4.30
2019-03-20T19:57:46.700Z,4.37
2019-03-20T20:00:56.215Z,4.93
2019-03-20T20:03:27.587Z,5.47
2019-03-20T20:05:58.494Z,5.20
2019-03-20T20:08:29.905Z,5.13
2019-03-20T20:10:59.262Z,4.87
2019-03-20T20:13:28.500Z,5.53
2019-03-20T20:15:57.222Z,11.20
2019-03-20T20:18:25.590Z,7.50
2019-03-20T20:20:54.220Z,7.40
2019-03-20T20:23:26.747Z,6.90
2019-03-20T20:25:55.712Z,6.90
2019-03-20T20:28:24.536Z,7.23
2019-03-20T20:30:53.828Z,6.77
2019-03-20T20:33:22.754Z,6.77
2019-03-20T20:35:52.289Z,7.07
2019-03-20T20:38:27.024Z,6.70
2019-03-20T20:40:56.405Z,6.20
2019-03-20T20:43:24.984Z,6.67
2019-03-20T20:45:53.861Z,6.90
2019-03-20T20:48:22.692Z,5.50
2019-03-20T20:50:52.314Z,5.40
2019-03-20T20:53:21.353Z,5.43
2019-03-20T20:55:51.257Z,6.10
2019-03-20T20:58:20.778Z,5.87
2019-03-20T21:00:49.101Z,6.57
2019-03-20T21:03:17.846Z,6.67
2019-03-20T21:05:48.250Z,7.03
2019-03-20T21:08:17.440Z,6.50
2019-03-20T21:10:46.794Z,6.13
2019-03-20T21:13:15.244Z,6.37
2019-03-20T21:15:50.872Z,6.03
2019-03-20T21:19:32.499Z,6.30
2019-03-20T21:23:02.571Z,6.10
2019-03-20T21:25:31.927Z,6.60
2019-03-20T21:29:15.188Z,6.03
2019-03-20T21:32:00.196Z,5.77
2019-03-20T21:35:15.135Z,5.67
2019-03-20T21:38:03.838Z,5.73
2019-03-20T21:41:25.762Z,5.33
2019-03-20T21:44:52.653Z,5.93
2019-03-20T21:47:32.334Z,5.33
2019-03-20T21:51:01.425Z,6.00
2019-03-20T21:54:28.282Z,5.97
2019-03-20T21:57:44.855Z,5.53
2019-03-20T22:01:14.877Z,5.93
2019-03-20T22:03:47.314Z,5.90
2019-03-20T22:07:04.898Z,6.20
2019-03-20T22:12:35.789Z,6.20
2019-03-20T22:15:18.195Z,5.70
2019-03-20T22:18:21.355Z,6.90
2019-03-20T22:21:25.916Z,6.33
2019-03-20T22:24:19.940Z,7.03
2019-03-20T22:27:53.491Z,9.50
2019-03-20T22:30:22.655Z,8.40
2019-03-20T22:33:46.925Z,7.97
2019-03-20T22:36:24.779Z,8.07
2019-03-20T22:40:07.873Z,7.70
2019-03-20T22:43:01.101Z,7.37
2019-03-20T22:46:26.103Z,6.77
2019-03-20T22:50:18.870Z,6.43
2019-03-20T22:53:48.337Z,6.50
2019-03-20T22:57:23.121Z,5.20
2019-03-20T22:59:51.893Z,5.53
2019-03-20T23:02:42.601Z,5.47
2019-03-20T23:05:11.863Z,5.50
2019-03-20T23:07:41.423Z,5.90
2019-03-20T23:10:12.978Z,5.73
2019-03-20T23:12:42.168Z,6.53
2019-03-20T23:15:14.822Z,5.00
2019-03-20T23:17:44.135Z,5.90
2019-03-20T23:20:16.658Z,6.70
2019-03-20T23:22:45.916Z,6.20
2019-03-20T23:25:14.904Z,5.70
2019-03-20T23:27:45.640Z,5.93
2019-03-20T23:30:19.649Z,6.03
2019-03-20T23:32:49.237Z,5.43
2019-03-20T23:35:18.346Z,5.73
2019-03-20T23:37:47.701Z,6.53
2019-03-20T23:40:16.830Z,5.50
2019-03-20T23:42:46.746Z,5.43
2019-03-20T23:45:16.785Z,5.77
2019-03-20T23:47:59.789Z,5.13
2019-03-20T23:50:29.327Z,5.87
2019-03-20T23:52:58.126Z,5.40
2019-03-20T23:55:27.611Z,5.60
2019-03-20T23:57:56.512Z,5.63
